sensor_id;sensor_type;location;lat;lon;timestamp;temperature;humidity
5218;DHT22;26539;51.064;6.346;2024-02-14T00:01:06;10.30;95.30
5218;DHT22;26539;51.064;6.346;2024-02-14T00:03:34;10.30;99.90
5218;DHT22;26539;51.064;6.346;2024-02-14T00:06:00;10.30;99.90
5218;DHT22;26539;51.064;6.346;2024-02-14T00:08:26;10.30;99.90
5218;DHT22;26539;51.064;6.346;2024-02-14T00:10:51;10.30;99.90
5218;DHT22;26539;51.064;6.346;2024-02-14T00:13:17;10.30;1.00
5218;DHT22;26539;51.064;6.346;2024-02-14T00:15:45;10.30;1.00
5218;DHT22;26539;51.064;6.346;2024-02-14T00:18:11;10.30;1.00
5218;DHT22;26539;51.064;6.346;2024-02-14T00:20:37;10.40;1.00
5218;DHT22;26539;51.064;6.346;2024-02-14T00:23:04;10.40;1.00
5218;DHT22;26539;51.064;6.346;2024-02-14T00:25:30;10.40;1.00
5218;DHT22;26539;51.064;6.346;2024-02-14T00:27:55;10.40;1.00
5218;DHT22;26539;51.064;6.346;2024-02-14T00:30:21;10.40;47.10
5218;DHT22;26539;51.064;6.346;2024-02-14T00:32:48;10.40;99.90
5218;DHT22;26539;51.064;6.346;2024-02-14T00:35:14;10.40;99.90
5218;DHT22;26539;51.064;6.346;2024-02-14T00:37:39;10.40;1.00
5218;DHT22;26539;51.064;6.346;2024-02-14T00:40:05;10.40;1.20
5218;DHT22;26539;51.064;6.346;2024-02-14T00:42:31;10.40;99.90
5218;DHT22;26539;51.064;6.346;2024-02-14T00:44:57;10.40;99.90
5218;DHT22;26539;51.064;6.346;2024-02-14T00:47:22;10.40;1.00
5218;DHT22;26539;51.064;6.346;2024-02-14T00:49:48;10.40;1.00
5218;DHT22;26539;51.064;6.346;2024-02-14T00:52:13;10.40;99.90
5218;DHT22;26539;51.064;6.346;2024-02-14T00:54:39;10.40;99.90
5218;DHT22;26539;51.064;6.346;2024-02-14T00:57:05;10.40;1.00
5218;DHT22;26539;51.064;6.346;2024-02-14T00:59:30;10.40;1.00
5218;DHT22;26539;51.064;6.346;2024-02-14T01:01:56;10.40;90.90
5218;DHT22;26539;51.064;6.346;2024-02-14T01:04:21;10.40;99.90
5218;DHT22;26539;51.064;6.346;2024-02-14T01:06:47;10.40;99.90
5218;DHT22;26539;51.064;6.346;2024-02-14T01:09:15;10.40;99.90
5218;DHT22;26539;51.064;6.346;2024-02-14T01:11:40;10.40;99.90
5218;DHT22;26539;51.064;6.346;2024-02-14T01:14:06;10.40;99.90
5218;DHT22;26539;51.064;6.346;2024-02-14T01:16:31;10.40;99.90
5218;DHT22;26539;51.064;6.346;2024-02-14T01:18:57;10.40;99.90
5218;DHT22;26539;51.064;6.346;2024-02-14T01:21:22;10.40;1.00
5218;DHT22;26539;51.064;6.346;2024-02-14T01:23:48;10.40;1.00
5218;DHT22;26539;51.064;6.346;2024-02-14T01:26:14;10.40;1.00
5218;DHT22;26539;51.064;6.346;2024-02-14T01:28:39;10.40;1.00
5218;DHT22;26539;51.064;6.346;2024-02-14T01:31:05;10.40;1.00
5218;DHT22;26539;51.064;6.346;2024-02-14T01:33:31;10.40;1.00
5218;DHT22;26539;51.064;6.346;2024-02-14T01:35:57;10.40;1.00
5218;DHT22;26539;51.064;6.346;2024-02-14T01:38:23;10.50;1.00
5218;DHT22;26539;51.064;6.346;2024-02-14T01:40:49;10.50;1.00
5218;DHT22;26539;51.064;6.346;2024-02-14T01:43:14;10.40;1.00
5218;DHT22;26539;51.064;6.346;2024-02-14T01:45:40;10.40;1.00
5218;DHT22;26539;51.064;6.346;2024-02-14T01:48:06;10.40;1.00
5218;DHT22;26539;51.064;6.346;2024-02-14T01:50:33;10.50;1.00
5218;DHT22;26539;51.064;6.346;2024-02-14T01:53:00;10.50;1.00
5218;DHT22;26539;51.064;6.346;2024-02-14T01:55:29;10.50;1.00
5218;DHT22;26539;51.064;6.346;2024-02-14T01:57:55;10.50;1.00
5218;DHT22;26539;51.064;6.346;2024-02-14T02:00:21;10.50;1.00
5218;DHT22;26539;51.064;6.346;2024-02-14T02:02:46;10.50;1.00
5218;DHT22;26539;51.064;6.346;2024-02-14T02:05:13;10.50;1.00
5218;DHT22;26539;51.064;6.346;2024-02-14T02:07:39;10.50;1.00
5218;DHT22;26539;51.064;6.346;2024-02-14T02:10:09;10.50;1.00
5218;DHT22;26539;51.064;6.346;2024-02-14T02:12:36;10.50;1.00
5218;DHT22;26539;51.064;6.346;2024-02-14T02:15:05;10.50;1.00
5218;DHT22;26539;51.064;6.346;2024-02-14T02:17:32;10.50;1.00
5218;DHT22;26539;51.064;6.346;2024-02-14T02:20:00;10.60;1.00
5218;DHT22;26539;51.064;6.346;2024-02-14T02:22:26;10.60;1.00
5218;DHT22;26539;51.064;6.346;2024-02-14T02:24:51;10.60;1.00
5218;DHT22;26539;51.064;6.346;2024-02-14T02:27:17;10.60;1.00
5218;DHT22;26539;51.064;6.346;2024-02-14T02:29:42;10.60;1.00
5218;DHT22;26539;51.064;6.346;2024-02-14T02:32:08;10.60;15.10
5218;DHT22;26539;51.064;6.346;2024-02-14T02:34:35;10.60;41.20
5218;DHT22;26539;51.064;6.346;2024-02-14T02:37:04;10.60;45.30
5218;DHT22;26539;51.064;6.346;2024-02-14T02:39:33;10.60;99.90
5218;DHT22;26539;51.064;6.346;2024-02-14T02:41:59;10.60;99.90
5218;DHT22;26539;51.064;6.346;2024-02-14T02:44:24;10.60;99.90
5218;DHT22;26539;51.064;6.346;2024-02-14T02:46:50;10.60;99.90
5218;DHT22;26539;51.064;6.346;2024-02-14T02:49:16;10.60;99.90
5218;DHT22;26539;51.064;6.346;2024-02-14T02:51:41;10.60;99.90
5218;DHT22;26539;51.064;6.346;2024-02-14T02:54:07;10.60;99.90
5218;DHT22;26539;51.064;6.346;2024-02-14T02:56:33;10.60;99.90
5218;DHT22;26539;51.064;6.346;2024-02-14T02:58:59;10.60;99.90
5218;DHT22;26539;51.064;6.346;2024-02-14T03:01:25;10.60;99.90
5218;DHT22;26539;51.064;6.346;2024-02-14T03:03:53;10.60;99.90
5218;DHT22;26539;51.064;6.346;2024-02-14T03:06:19;10.50;99.90
5218;DHT22;26539;51.064;6.346;2024-02-14T03:08:45;10.60;99.90
5218;DHT22;26539;51.064;6.346;2024-02-14T03:11:11;10.60;99.90
5218;DHT22;26539;51.064;6.346;2024-02-14T03:13:37;10.60;99.90
5218;DHT22;26539;51.064;6.346;2024-02-14T03:16:06;10.60;1.00
5218;DHT22;26539;51.064;6.346;2024-02-14T03:18:32;10.50;1.00
5218;DHT22;26539;51.064;6.346;2024-02-14T03:20:58;10.60;99.90
5218;DHT22;26539;51.064;6.346;2024-02-14T03:23:23;10.50;1.00
5218;DHT22;26539;51.064;6.346;2024-02-14T03:25:49;10.50;1.00
5218;DHT22;26539;51.064;6.346;2024-02-14T03:28:17;10.50;1.00
5218;DHT22;26539;51.064;6.346;2024-02-14T03:30:43;10.50;1.00
5218;DHT22;26539;51.064;6.346;2024-02-14T03:33:09;10.50;1.00
5218;DHT22;26539;51.064;6.346;2024-02-14T03:35:34;10.50;1.00
5218;DHT22;26539;51.064;6.346;2024-02-14T03:38:01;10.50;1.00
5218;DHT22;26539;51.064;6.346;2024-02-14T03:40:27;10.40;1.00
5218;DHT22;26539;51.064;6.346;2024-02-14T03:42:55;10.40;1.00
5218;DHT22;26539;51.064;6.346;2024-02-14T03:45:21;10.40;1.00
5218;DHT22;26539;51.064;6.346;2024-02-14T03:47:47;10.40;1.00
5218;DHT22;26539;51.064;6.346;2024-02-14T03:50:12;10.40;1.00
5218;DHT22;26539;51.064;6.346;2024-02-14T03:52:38;10.50;1.00
5218;DHT22;26539;51.064;6.346;2024-02-14T03:55:06;10.40;1.00
5218;DHT22;26539;51.064;6.346;2024-02-14T03:57:32;10.40;1.00
5218;DHT22;26539;51.064;6.346;2024-02-14T04:00:00;10.40;1.00
5218;DHT22;26539;51.064;6.346;2024-02-14T04:02:29;10.40;1.00
5218;DHT22;26539;51.064;6.346;2024-02-14T04:04:54;10.40;1.00
5218;DHT22;26539;51.064;6.346;2024-02-14T04:07:20;10.40;1.00
5218;DHT22;26539;51.064;6.346;2024-02-14T04:09:47;10.40;1.00
5218;DHT22;26539;51.064;6.346;2024-02-14T04:12:12;10.40;1.00
5218;DHT22;26539;51.064;6.346;2024-02-14T04:14:38;10.40;1.00
5218;DHT22;26539;51.064;6.346;2024-02-14T04:17:04;10.40;1.00
5218;DHT22;26539;51.064;6.346;2024-02-14T04:19:33;10.40;1.00
5218;DHT22;26539;51.064;6.346;2024-02-14T04:21:58;10.40;1.00
5218;DHT22;26539;51.064;6.346;2024-02-14T04:24:24;10.40;1.00
5218;DHT22;26539;51.064;6.346;2024-02-14T04:26:49;10.40;1.00
5218;DHT22;26539;51.064;6.346;2024-02-14T04:29:15;10.40;1.00
5218;DHT22;26539;51.064;6.346;2024-02-14T04:31:41;10.40;1.00
5218;DHT22;26539;51.064;6.346;2024-02-14T04:34:08;10.40;1.00
5218;DHT22;26539;51.064;6.346;2024-02-14T04:36:35;10.40;1.00
5218;DHT22;26539;51.064;6.346;2024-02-14T04:39:01;10.40;1.00
5218;DHT22;26539;51.064;6.346;2024-02-14T04:41:26;10.40;1.00
5218;DHT22;26539;51.064;6.346;2024-02-14T04:43:52;10.50;1.00
5218;DHT22;26539;51.064;6.346;2024-02-14T04:46:17;10.50;1.00
5218;DHT22;26539;51.064;6.346;2024-02-14T04:48:43;10.50;1.00
5218;DHT22;26539;51.064;6.346;2024-02-14T04:51:09;10.50;1.00
5218;DHT22;26539;51.064;6.346;2024-02-14T04:53:35;10.50;1.00
5218;DHT22;26539;51.064;6.346;2024-02-14T04:56:01;10.50;1.00
5218;DHT22;26539;51.064;6.346;2024-02-14T04:58:26;10.40;1.00
5218;DHT22;26539;51.064;6.346;2024-02-14T05:00:52;10.40;1.00
5218;DHT22;26539;51.064;6.346;2024-02-14T05:03:18;10.40;1.00
5218;DHT22;26539;51.064;6.346;2024-02-14T05:05:44;10.30;1.00
5218;DHT22;26539;51.064;6.346;2024-02-14T05:08:09;10.30;1.00
5218;DHT22;26539;51.064;6.346;2024-02-14T05:10:35;10.30;1.00
5218;DHT22;26539;51.064;6.346;2024-02-14T05:13:00;10.20;1.00
5218;DHT22;26539;51.064;6.346;2024-02-14T05:15:26;10.30;1.00
5218;DHT22;26539;51.064;6.346;2024-02-14T05:17:52;10.20;1.00
5218;DHT22;26539;51.064;6.346;2024-02-14T05:20:18;10.20;1.00
5218;DHT22;26539;51.064;6.346;2024-02-14T05:22:43;10.30;1.00
5218;DHT22;26539;51.064;6.346;2024-02-14T05:25:09;10.30;1.00
5218;DHT22;26539;51.064;6.346;2024-02-14T05:27:35;10.30;1.00
5218;DHT22;26539;51.064;6.346;2024-02-14T05:30:02;10.30;1.00
5218;DHT22;26539;51.064;6.346;2024-02-14T05:32:31;10.20;1.00
5218;DHT22;26539;51.064;6.346;2024-02-14T05:34:57;10.20;1.00
5218;DHT22;26539;51.064;6.346;2024-02-14T05:37:22;10.20;1.00
5218;DHT22;26539;51.064;6.346;2024-02-14T05:39:48;10.20;1.00
5218;DHT22;26539;51.064;6.346;2024-02-14T05:42:14;10.20;1.00
5218;DHT22;26539;51.064;6.346;2024-02-14T05:44:41;10.10;1.00
5218;DHT22;26539;51.064;6.346;2024-02-14T05:47:08;10.10;1.00
5218;DHT22;26539;51.064;6.346;2024-02-14T05:49:34;10.10;1.00
5218;DHT22;26539;51.064;6.346;2024-02-14T05:51:59;10.10;1.00
5218;DHT22;26539;51.064;6.346;2024-02-14T05:54:25;10.10;1.00
5218;DHT22;26539;51.064;6.346;2024-02-14T05:56:51;10.20;1.00
5218;DHT22;26539;51.064;6.346;2024-02-14T05:59:16;10.20;1.00
5218;DHT22;26539;51.064;6.346;2024-02-14T06:01:42;10.20;1.00
5218;DHT22;26539;51.064;6.346;2024-02-14T06:04:07;10.20;1.00
5218;DHT22;26539;51.064;6.346;2024-02-14T06:06:33;10.30;1.00
5218;DHT22;26539;51.064;6.346;2024-02-14T06:08:59;10.30;1.00
5218;DHT22;26539;51.064;6.346;2024-02-14T06:11:25;10.30;1.00
5218;DHT22;26539;51.064;6.346;2024-02-14T06:13:50;10.40;1.00
5218;DHT22;26539;51.064;6.346;2024-02-14T06:16:16;10.40;1.00
5218;DHT22;26539;51.064;6.346;2024-02-14T06:18:41;10.40;1.00
5218;DHT22;26539;51.064;6.346;2024-02-14T06:21:07;10.40;1.00
5218;DHT22;26539;51.064;6.346;2024-02-14T06:23:33;10.40;1.00
5218;DHT22;26539;51.064;6.346;2024-02-14T06:25:59;10.40;1.00
5218;DHT22;26539;51.064;6.346;2024-02-14T06:28:24;10.40;1.00
5218;DHT22;26539;51.064;6.346;2024-02-14T06:30:50;10.40;1.00
5218;DHT22;26539;51.064;6.346;2024-02-14T06:33:16;10.40;1.00
5218;DHT22;26539;51.064;6.346;2024-02-14T06:35:41;10.50;1.00
5218;DHT22;26539;51.064;6.346;2024-02-14T06:38:07;10.50;1.00
5218;DHT22;26539;51.064;6.346;2024-02-14T06:40:33;10.50;1.00
5218;DHT22;26539;51.064;6.346;2024-02-14T06:42:59;10.50;1.00
5218;DHT22;26539;51.064;6.346;2024-02-14T06:45:27;10.50;1.00
5218;DHT22;26539;51.064;6.346;2024-02-14T06:47:53;10.40;1.00
5218;DHT22;26539;51.064;6.346;2024-02-14T06:50:19;10.50;1.00
5218;DHT22;26539;51.064;6.346;2024-02-14T06:52:45;10.50;1.00
5218;DHT22;26539;51.064;6.346;2024-02-14T06:55:11;10.60;1.00
5218;DHT22;26539;51.064;6.346;2024-02-14T06:57:36;10.60;1.00
5218;DHT22;26539;51.064;6.346;2024-02-14T07:00:03;10.60;1.00
5218;DHT22;26539;51.064;6.346;2024-02-14T07:02:31;10.60;1.00
5218;DHT22;26539;51.064;6.346;2024-02-14T07:04:56;10.70;1.00
5218;DHT22;26539;51.064;6.346;2024-02-14T07:07:22;10.70;1.00
5218;DHT22;26539;51.064;6.346;2024-02-14T07:09:48;10.80;1.00
5218;DHT22;26539;51.064;6.346;2024-02-14T07:12:13;10.80;1.00
5218;DHT22;26539;51.064;6.346;2024-02-14T07:14:39;10.80;1.00
5218;DHT22;26539;51.064;6.346;2024-02-14T07:17:05;10.80;1.00
5218;DHT22;26539;51.064;6.346;2024-02-14T07:19:30;10.90;1.00
5218;DHT22;26539;51.064;6.346;2024-02-14T07:21:56;10.90;1.00
5218;DHT22;26539;51.064;6.346;2024-02-14T07:24:21;10.90;1.00
5218;DHT22;26539;51.064;6.346;2024-02-14T07:26:47;11.00;1.00
5218;DHT22;26539;51.064;6.346;2024-02-14T07:29:12;11.10;1.00
5218;DHT22;26539;51.064;6.346;2024-02-14T07:31:38;11.20;1.00
5218;DHT22;26539;51.064;6.346;2024-02-14T07:34:04;11.30;1.00
5218;DHT22;26539;51.064;6.346;2024-02-14T07:36:31;11.40;1.00
5218;DHT22;26539;51.064;6.346;2024-02-14T07:38:57;11.50;1.00
5218;DHT22;26539;51.064;6.346;2024-02-14T07:41:23;11.60;1.00
5218;DHT22;26539;51.064;6.346;2024-02-14T07:43:48;11.70;1.00
5218;DHT22;26539;51.064;6.346;2024-02-14T07:46:18;11.70;99.90
5218;DHT22;26539;51.064;6.346;2024-02-14T07:48:44;11.60;1.00
5218;DHT22;26539;51.064;6.346;2024-02-14T07:51:10;11.60;1.00
5218;DHT22;26539;51.064;6.346;2024-02-14T07:53:35;11.60;1.00
5218;DHT22;26539;51.064;6.346;2024-02-14T07:56:01;11.60;1.00
5218;DHT22;26539;51.064;6.346;2024-02-14T07:58:26;11.70;1.00
5218;DHT22;26539;51.064;6.346;2024-02-14T08:00:52;11.70;1.00
5218;DHT22;26539;51.064;6.346;2024-02-14T08:03:17;11.70;1.00
5218;DHT22;26539;51.064;6.346;2024-02-14T08:05:43;11.80;1.00
5218;DHT22;26539;51.064;6.346;2024-02-14T08:08:09;11.90;99.90
5218;DHT22;26539;51.064;6.346;2024-02-14T08:10:34;12.00;99.90
5218;DHT22;26539;51.064;6.346;2024-02-14T08:13:00;12.10;99.90
5218;DHT22;26539;51.064;6.346;2024-02-14T08:15:25;12.10;99.90
5218;DHT22;26539;51.064;6.346;2024-02-14T08:17:51;12.10;99.90
5218;DHT22;26539;51.064;6.346;2024-02-14T08:20:19;12.10;99.90
5218;DHT22;26539;51.064;6.346;2024-02-14T08:22:44;12.10;99.90
5218;DHT22;26539;51.064;6.346;2024-02-14T08:25:10;12.20;99.90
5218;DHT22;26539;51.064;6.346;2024-02-14T08:27:37;12.20;99.90
5218;DHT22;26539;51.064;6.346;2024-02-14T08:30:02;12.20;90.60
5218;DHT22;26539;51.064;6.346;2024-02-14T08:32:30;12.30;71.50
5218;DHT22;26539;51.064;6.346;2024-02-14T08:34:55;12.20;1.00
5218;DHT22;26539;51.064;6.346;2024-02-14T08:37:21;12.20;11.40
5218;DHT22;26539;51.064;6.346;2024-02-14T08:39:47;12.30;1.00
5218;DHT22;26539;51.064;6.346;2024-02-14T08:42:13;12.40;1.00
5218;DHT22;26539;51.064;6.346;2024-02-14T08:44:38;12.50;1.00
5218;DHT22;26539;51.064;6.346;2024-02-14T08:47:04;12.60;99.90
5218;DHT22;26539;51.064;6.346;2024-02-14T08:49:30;12.70;99.90
5218;DHT22;26539;51.064;6.346;2024-02-14T08:51:55;12.90;69.60
5218;DHT22;26539;51.064;6.346;2024-02-14T08:54:21;13.00;1.00
5218;DHT22;26539;51.064;6.346;2024-02-14T08:56:48;13.30;99.90
5218;DHT22;26539;51.064;6.346;2024-02-14T08:59:14;13.50;99.90
5218;DHT22;26539;51.064;6.346;2024-02-14T09:01:39;13.60;99.90
5218;DHT22;26539;51.064;6.346;2024-02-14T09:04:05;13.80;99.90
5218;DHT22;26539;51.064;6.346;2024-02-14T09:06:30;14.10;1.00
5218;DHT22;26539;51.064;6.346;2024-02-14T09:08:58;14.10;99.90
5218;DHT22;26539;51.064;6.346;2024-02-14T09:11:23;14.20;1.00
5218;DHT22;26539;51.064;6.346;2024-02-14T09:13:49;14.30;1.00
5218;DHT22;26539;51.064;6.346;2024-02-14T09:16:19;14.40;1.00
5218;DHT22;26539;51.064;6.346;2024-02-14T09:18:47;14.60;99.90
5218;DHT22;26539;51.064;6.346;2024-02-14T09:21:13;14.60;98.30
5218;DHT22;26539;51.064;6.346;2024-02-14T09:23:40;14.60;63.50
5218;DHT22;26539;51.064;6.346;2024-02-14T09:26:07;14.50;1.00
5218;DHT22;26539;51.064;6.346;2024-02-14T09:28:33;14.50;1.00
5218;DHT22;26539;51.064;6.346;2024-02-14T09:31:00;14.50;65.00
5218;DHT22;26539;51.064;6.346;2024-02-14T09:33:28;14.40;99.90
5218;DHT22;26539;51.064;6.346;2024-02-14T09:35:54;14.20;99.90
5218;DHT22;26539;51.064;6.346;2024-02-14T09:38:19;14.20;99.90
5218;DHT22;26539;51.064;6.346;2024-02-14T09:40:45;14.10;1.00
5218;DHT22;26539;51.064;6.346;2024-02-14T09:45:50;13.80;1.00
5218;DHT22;26539;51.064;6.346;2024-02-14T09:48:17;13.70;99.90
5218;DHT22;26539;51.064;6.346;2024-02-14T09:50:44;13.60;99.90
5218;DHT22;26539;51.064;6.346;2024-02-14T09:53:12;13.60;1.00
5218;DHT22;26539;51.064;6.346;2024-02-14T09:55:39;13.60;1.00
5218;DHT22;26539;51.064;6.346;2024-02-14T09:58:06;13.50;90.80
5218;DHT22;26539;51.064;6.346;2024-02-14T10:00:32;13.60;99.90
5218;DHT22;26539;51.064;6.346;2024-02-14T10:02:58;13.80;50.40
5218;DHT22;26539;51.064;6.346;2024-02-14T10:05:24;13.90;1.00
5218;DHT22;26539;51.064;6.346;2024-02-14T10:07:50;13.90;99.90
5218;DHT22;26539;51.064;6.346;2024-02-14T10:10:16;13.90;99.90
5218;DHT22;26539;51.064;6.346;2024-02-14T10:12:42;14.00;99.90
5218;DHT22;26539;51.064;6.346;2024-02-14T10:15:08;14.10;99.90
5218;DHT22;26539;51.064;6.346;2024-02-14T10:17:34;14.10;1.00
5218;DHT22;26539;51.064;6.346;2024-02-14T10:20:01;14.10;99.90
5218;DHT22;26539;51.064;6.346;2024-02-14T10:22:38;14.10;99.90
5218;DHT22;26539;51.064;6.346;2024-02-14T10:25:05;14.20;99.90
5218;DHT22;26539;51.064;6.346;2024-02-14T10:27:40;14.20;99.90
5218;DHT22;26539;51.064;6.346;2024-02-14T10:30:08;14.30;10.80
5218;DHT22;26539;51.064;6.346;2024-02-14T10:32:37;14.40;1.00
5218;DHT22;26539;51.064;6.346;2024-02-14T10:35:07;14.40;99.90
5218;DHT22;26539;51.064;6.346;2024-02-14T10:37:34;14.50;1.00
5218;DHT22;26539;51.064;6.346;2024-02-14T10:40:01;14.60;99.90
5218;DHT22;26539;51.064;6.346;2024-02-14T10:42:27;14.80;99.90
5218;DHT22;26539;51.064;6.346;2024-02-14T10:44:54;14.90;1.00
5218;DHT22;26539;51.064;6.346;2024-02-14T10:47:20;15.00;1.00
5218;DHT22;26539;51.064;6.346;2024-02-14T10:49:50;15.00;99.90
5218;DHT22;26539;51.064;6.346;2024-02-14T10:52:17;15.20;99.90
5218;DHT22;26539;51.064;6.346;2024-02-14T10:54:51;15.40;99.90
5218;DHT22;26539;51.064;6.346;2024-02-14T10:57:19;15.50;1.00
5218;DHT22;26539;51.064;6.346;2024-02-14T10:59:46;15.60;1.00
5218;DHT22;26539;51.064;6.346;2024-02-14T11:02:14;15.90;1.00
5218;DHT22;26539;51.064;6.346;2024-02-14T11:04:40;16.40;99.90
5218;DHT22;26539;51.064;6.346;2024-02-14T11:07:09;16.70;99.90
5218;DHT22;26539;51.064;6.346;2024-02-14T11:09:38;16.60;84.00
5218;DHT22;26539;51.064;6.346;2024-02-14T11:12:09;16.40;99.90
5218;DHT22;26539;51.064;6.346;2024-02-14T11:14:36;16.10;99.90
5218;DHT22;26539;51.064;6.346;2024-02-14T11:17:02;15.60;99.90
5218;DHT22;26539;51.064;6.346;2024-02-14T11:19:32;15.30;1.00
5218;DHT22;26539;51.064;6.346;2024-02-14T11:22:12;15.20;1.00
5218;DHT22;26539;51.064;6.346;2024-02-14T11:24:38;15.30;99.90
5218;DHT22;26539;51.064;6.346;2024-02-14T11:27:12;15.20;1.00
5218;DHT22;26539;51.064;6.346;2024-02-14T11:29:50;15.00;1.00
5218;DHT22;26539;51.064;6.346;2024-02-14T11:32:17;15.00;1.00
5218;DHT22;26539;51.064;6.346;2024-02-14T11:34:43;15.00;1.00
5218;DHT22;26539;51.064;6.346;2024-02-14T11:37:09;14.90;1.00
5218;DHT22;26539;51.064;6.346;2024-02-14T11:39:35;14.80;1.00
5218;DHT22;26539;51.064;6.346;2024-02-14T11:42:01;14.70;99.90
5218;DHT22;26539;51.064;6.346;2024-02-14T11:44:27;14.60;99.90
5218;DHT22;26539;51.064;6.346;2024-02-14T11:46:52;14.50;1.00
5218;DHT22;26539;51.064;6.346;2024-02-14T11:49:19;14.40;9.20
5218;DHT22;26539;51.064;6.346;2024-02-14T11:51:44;14.40;99.90
5218;DHT22;26539;51.064;6.346;2024-02-14T11:54:10;14.30;1.00
5218;DHT22;26539;51.064;6.346;2024-02-14T11:56:39;14.20;1.00
5218;DHT22;26539;51.064;6.346;2024-02-14T11:59:06;14.20;99.90
5218;DHT22;26539;51.064;6.346;2024-02-14T12:01:37;14.10;1.00
5218;DHT22;26539;51.064;6.346;2024-02-14T12:04:07;14.00;1.00
5218;DHT22;26539;51.064;6.346;2024-02-14T12:06:35;14.00;1.00
5218;DHT22;26539;51.064;6.346;2024-02-14T12:09:04;14.00;8.50
5218;DHT22;26539;51.064;6.346;2024-02-14T12:11:36;14.00;1.00
5218;DHT22;26539;51.064;6.346;2024-02-14T12:14:06;14.00;1.00
5218;DHT22;26539;51.064;6.346;2024-02-14T12:16:36;14.10;1.00
5218;DHT22;26539;51.064;6.346;2024-02-14T12:19:06;14.30;99.90
5218;DHT22;26539;51.064;6.346;2024-02-14T12:21:37;14.40;1.00
5218;DHT22;26539;51.064;6.346;2024-02-14T12:24:08;14.50;1.00
5218;DHT22;26539;51.064;6.346;2024-02-14T12:26:35;14.60;1.00
5218;DHT22;26539;51.064;6.346;2024-02-14T12:29:02;14.70;1.00
5218;DHT22;26539;51.064;6.346;2024-02-14T12:31:29;14.80;99.90
5218;DHT22;26539;51.064;6.346;2024-02-14T12:33:59;14.80;1.00
5218;DHT22;26539;51.064;6.346;2024-02-14T12:36:31;14.90;92.30
5218;DHT22;26539;51.064;6.346;2024-02-14T12:38:56;15.00;1.00
5218;DHT22;26539;51.064;6.346;2024-02-14T12:41:23;15.00;1.00
5218;DHT22;26539;51.064;6.346;2024-02-14T12:43:52;14.90;1.00
5218;DHT22;26539;51.064;6.346;2024-02-14T12:46:19;14.80;99.90
5218;DHT22;26539;51.064;6.346;2024-02-14T12:48:44;14.70;99.90
5218;DHT22;26539;51.064;6.346;2024-02-14T12:51:10;14.60;99.90
5218;DHT22;26539;51.064;6.346;2024-02-14T12:53:36;14.60;1.00
5218;DHT22;26539;51.064;6.346;2024-02-14T12:56:02;14.70;99.90
5218;DHT22;26539;51.064;6.346;2024-02-14T12:58:28;14.80;99.90
5218;DHT22;26539;51.064;6.346;2024-02-14T13:00:54;14.80;1.00
5218;DHT22;26539;51.064;6.346;2024-02-14T13:03:20;14.80;1.00
5218;DHT22;26539;51.064;6.346;2024-02-14T13:05:45;14.80;99.90
5218;DHT22;26539;51.064;6.346;2024-02-14T13:08:13;14.80;99.90
5218;DHT22;26539;51.064;6.346;2024-02-14T13:10:38;14.70;99.90
5218;DHT22;26539;51.064;6.346;2024-02-14T13:13:04;14.60;82.60
5218;DHT22;26539;51.064;6.346;2024-02-14T13:15:30;14.40;1.00
5218;DHT22;26539;51.064;6.346;2024-02-14T13:17:55;14.40;1.00
5218;DHT22;26539;51.064;6.346;2024-02-14T13:20:24;14.40;99.90
5218;DHT22;26539;51.064;6.346;2024-02-14T13:22:49;14.40;99.90
5218;DHT22;26539;51.064;6.346;2024-02-14T13:25:15;14.40;99.90
5218;DHT22;26539;51.064;6.346;2024-02-14T13:27:40;14.30;99.90
5218;DHT22;26539;51.064;6.346;2024-02-14T13:30:06;14.20;99.90
5218;DHT22;26539;51.064;6.346;2024-02-14T13:32:32;14.10;1.00
5218;DHT22;26539;51.064;6.346;2024-02-14T13:34:58;14.10;1.00
5218;DHT22;26539;51.064;6.346;2024-02-14T13:37:24;14.10;1.00
5218;DHT22;26539;51.064;6.346;2024-02-14T13:39:51;14.00;1.00
5218;DHT22;26539;51.064;6.346;2024-02-14T13:42:16;14.10;1.00
5218;DHT22;26539;51.064;6.346;2024-02-14T13:44:42;14.00;1.00
5218;DHT22;26539;51.064;6.346;2024-02-14T13:47:08;14.00;1.00
5218;DHT22;26539;51.064;6.346;2024-02-14T13:49:34;14.00;1.00
5218;DHT22;26539;51.064;6.346;2024-02-14T13:51:59;13.90;1.00
5218;DHT22;26539;51.064;6.346;2024-02-14T13:54:25;13.80;1.00
5218;DHT22;26539;51.064;6.346;2024-02-14T13:56:51;13.80;1.00
5218;DHT22;26539;51.064;6.346;2024-02-14T13:59:17;13.70;1.00
5218;DHT22;26539;51.064;6.346;2024-02-14T14:01:44;13.70;1.00
5218;DHT22;26539;51.064;6.346;2024-02-14T14:04:11;13.70;1.00
5218;DHT22;26539;51.064;6.346;2024-02-14T14:06:38;13.50;1.00
5218;DHT22;26539;51.064;6.346;2024-02-14T14:09:04;13.50;1.00
5218;DHT22;26539;51.064;6.346;2024-02-14T14:11:33;13.40;1.00
5218;DHT22;26539;51.064;6.346;2024-02-14T14:13:58;13.30;1.00
5218;DHT22;26539;51.064;6.346;2024-02-14T14:16:25;13.30;1.00
5218;DHT22;26539;51.064;6.346;2024-02-14T14:18:51;13.30;1.00
5218;DHT22;26539;51.064;6.346;2024-02-14T14:21:16;13.20;1.00
5218;DHT22;26539;51.064;6.346;2024-02-14T14:23:42;13.30;1.00
5218;DHT22;26539;51.064;6.346;2024-02-14T14:26:08;13.30;1.00
5218;DHT22;26539;51.064;6.346;2024-02-14T14:28:34;13.30;1.00
5218;DHT22;26539;51.064;6.346;2024-02-14T14:31:00;13.30;1.00
5218;DHT22;26539;51.064;6.346;2024-02-14T14:33:27;13.20;1.00
5218;DHT22;26539;51.064;6.346;2024-02-14T14:35:52;13.20;1.00
5218;DHT22;26539;51.064;6.346;2024-02-14T14:38:19;13.20;1.00
5218;DHT22;26539;51.064;6.346;2024-02-14T14:40:45;13.20;1.00
5218;DHT22;26539;51.064;6.346;2024-02-14T14:43:14;13.20;4.70
5218;DHT22;26539;51.064;6.346;2024-02-14T14:45:39;13.20;2.90
5218;DHT22;26539;51.064;6.346;2024-02-14T14:48:07;13.10;5.30
5218;DHT22;26539;51.064;6.346;2024-02-14T14:50:33;13.10;5.80
5218;DHT22;26539;51.064;6.346;2024-02-14T14:52:59;13.10;5.70
5218;DHT22;26539;51.064;6.346;2024-02-14T14:55:25;13.10;3.30
5218;DHT22;26539;51.064;6.346;2024-02-14T14:57:53;13.00;5.00
5218;DHT22;26539;51.064;6.346;2024-02-14T15:00:21;13.00;8.30
5218;DHT22;26539;51.064;6.346;2024-02-14T15:02:47;13.00;10.00
5218;DHT22;26539;51.064;6.346;2024-02-14T15:05:13;13.00;8.50
5218;DHT22;26539;51.064;6.346;2024-02-14T15:07:39;13.00;15.60
5218;DHT22;26539;51.064;6.346;2024-02-14T15:10:05;13.00;17.40
5218;DHT22;26539;51.064;6.346;2024-02-14T15:12:31;13.00;15.80
5218;DHT22;26539;51.064;6.346;2024-02-14T15:14:56;13.00;15.60
5218;DHT22;26539;51.064;6.346;2024-02-14T15:17:22;13.00;16.60
5218;DHT22;26539;51.064;6.346;2024-02-14T15:19:49;13.00;14.00
5218;DHT22;26539;51.064;6.346;2024-02-14T15:22:14;13.00;16.30
5218;DHT22;26539;51.064;6.346;2024-02-14T15:24:41;13.00;15.40
5218;DHT22;26539;51.064;6.346;2024-02-14T15:27:08;13.00;16.40
5218;DHT22;26539;51.064;6.346;2024-02-14T15:29:36;13.00;18.80
5218;DHT22;26539;51.064;6.346;2024-02-14T15:32:21;13.00;24.00
5218;DHT22;26539;51.064;6.346;2024-02-14T15:35:06;12.90;25.70
5218;DHT22;26539;51.064;6.346;2024-02-14T15:37:32;12.90;30.60
5218;DHT22;26539;51.064;6.346;2024-02-14T15:39:57;12.90;39.50
5218;DHT22;26539;51.064;6.346;2024-02-14T15:42:23;12.90;41.20
5218;DHT22;26539;51.064;6.346;2024-02-14T15:44:48;12.90;46.00
5218;DHT22;26539;51.064;6.346;2024-02-14T15:47:14;12.90;47.30
5218;DHT22;26539;51.064;6.346;2024-02-14T15:49:40;12.90;47.50
5218;DHT22;26539;51.064;6.346;2024-02-14T15:52:06;12.90;47.50
5218;DHT22;26539;51.064;6.346;2024-02-14T15:54:33;12.90;49.10